sensor_id;sensor_type;location;lat;lon;timestamp;P1;durP1;ratioP1;P2;durP2;ratioP2
71095;SDS011;58753;49.440;11.126;2024-03-25T00:00:53;2.03;;;1.30;;
71095;SDS011;58753;49.440;11.126;2024-03-25T00:03:19;3.33;;;1.20;;
71095;SDS011;58753;49.440;11.126;2024-03-25T00:05:44;3.43;;;0.90;;
71095;SDS011;58753;49.440;11.126;2024-03-25T00:08:10;3.27;;;1.90;;
71095;SDS011;58753;49.440;11.126;2024-03-25T00:10:35;3.30;;;1.23;;
71095;SDS011;58753;49.440;11.126;2024-03-25T00:13:02;3.65;;;1.27;;
71095;SDS011;58753;49.440;11.126;2024-03-25T00:15:27;1.97;;;0.70;;
71095;SDS011;58753;49.440;11.126;2024-03-25T00:17:52;4.45;;;1.88;;
71095;SDS011;58753;49.440;11.126;2024-03-25T00:20:18;5.63;;;1.90;;
71095;SDS011;58753;49.440;11.126;2024-03-25T00:22:43;7.00;;;1.67;;
71095;SDS011;58753;49.440;11.126;2024-03-25T00:25:09;5.63;;;2.22;;
71095;SDS011;58753;49.440;11.126;2024-03-25T00:27:35;2.90;;;1.50;;
71095;SDS011;58753;49.440;11.126;2024-03-25T00:30:00;4.00;;;1.73;;
71095;SDS011;58753;49.440;11.126;2024-03-25T00:32:26;2.57;;;1.17;;
71095;SDS011;58753;49.440;11.126;2024-03-25T00:34:51;4.27;;;1.50;;
71095;SDS011;58753;49.440;11.126;2024-03-25T00:37:17;4.78;;;1.45;;
71095;SDS011;58753;49.440;11.126;2024-03-25T00:39:42;4.17;;;1.67;;
71095;SDS011;58753;49.440;11.126;2024-03-25T00:42:08;2.60;;;1.10;;
71095;SDS011;58753;49.440;11.126;2024-03-25T00:44:33;3.90;;;2.03;;
71095;SDS011;58753;49.440;11.126;2024-03-25T00:46:59;5.30;;;2.20;;
71095;SDS011;58753;49.440;11.126;2024-03-25T00:49:24;4.83;;;1.50;;
71095;SDS011;58753;49.440;11.126;2024-03-25T00:51:50;6.07;;;2.13;;
71095;SDS011;58753;49.440;11.126;2024-03-25T00:54:15;6.63;;;2.50;;
71095;SDS011;58753;49.440;11.126;2024-03-25T00:56:41;7.97;;;1.70;;
71095;SDS011;58753;49.440;11.126;2024-03-25T00:59:06;7.25;;;2.05;;
71095;SDS011;58753;49.440;11.126;2024-03-25T01:01:32;3.80;;;1.90;;
71095;SDS011;58753;49.440;11.126;2024-03-25T01:03:58;4.68;;;1.50;;
71095;SDS011;58753;49.440;11.126;2024-03-25T01:06:24;5.13;;;2.13;;
71095;SDS011;58753;49.440;11.126;2024-03-25T01:08:49;6.73;;;2.20;;
71095;SDS011;58753;49.440;11.126;2024-03-25T01:11:15;3.20;;;1.77;;
71095;SDS011;58753;49.440;11.126;2024-03-25T01:13:41;4.80;;;2.07;;
71095;SDS011;58753;49.440;11.126;2024-03-25T01:16:06;5.47;;;1.90;;
71095;SDS011;58753;49.440;11.126;2024-03-25T01:18:32;11.15;;;2.38;;
71095;SDS011;58753;49.440;11.126;2024-03-25T01:20:58;4.50;;;1.83;;
71095;SDS011;58753;49.440;11.126;2024-03-25T01:23:24;3.70;;;1.98;;
71095;SDS011;58753;49.440;11.126;2024-03-25T01:25:49;7.90;;;2.07;;
71095;SDS011;58753;49.440;11.126;2024-03-25T01:28:15;6.27;;;1.70;;
71095;SDS011;58753;49.440;11.126;2024-03-25T01:30:41;4.10;;;2.30;;
71095;SDS011;58753;49.440;11.126;2024-03-25T01:33:06;3.83;;;1.60;;
71095;SDS011;58753;49.440;11.126;2024-03-25T01:35:32;7.43;;;2.20;;
71095;SDS011;58753;49.440;11.126;2024-03-25T01:37:57;7.57;;;2.40;;
71095;SDS011;58753;49.440;11.126;2024-03-25T01:40:23;3.10;;;1.30;;
71095;SDS011;58753;49.440;11.126;2024-03-25T01:42:58;3.83;;;1.45;;
71095;SDS011;58753;49.440;11.126;2024-03-25T01:45:24;3.77;;;1.80;;
71095;SDS011;58753;49.440;11.126;2024-03-25T01:47:51;3.97;;;2.17;;
71095;SDS011;58753;49.440;11.126;2024-03-25T01:50:17;3.08;;;1.33;;
71095;SDS011;58753;49.440;11.126;2024-03-25T01:52:44;3.38;;;1.90;;
71095;SDS011;58753;49.440;11.126;2024-03-25T01:55:12;4.67;;;2.13;;
71095;SDS011;58753;49.440;11.126;2024-03-25T01:57:42;3.80;;;2.00;;
71095;SDS011;58753;49.440;11.126;2024-03-25T02:00:08;3.65;;;1.75;;
71095;SDS011;58753;49.440;11.126;2024-03-25T02:02:34;4.13;;;1.67;;
71095;SDS011;58753;49.440;11.126;2024-03-25T02:05:02;7.20;;;1.80;;
71095;SDS011;58753;49.440;11.126;2024-03-25T02:07:28;2.58;;;2.03;;
71095;SDS011;58753;49.440;11.126;2024-03-25T02:09:55;5.47;;;2.17;;
71095;SDS011;58753;49.440;11.126;2024-03-25T02:12:21;5.03;;;2.00;;
71095;SDS011;58753;49.440;11.126;2024-03-25T02:14:47;2.10;;;1.07;;
71095;SDS011;58753;49.440;11.126;2024-03-25T02:17:12;3.33;;;1.47;;
71095;SDS011;58753;49.440;11.126;2024-03-25T02:19:38;6.50;;;2.17;;
71095;SDS011;58753;49.440;11.126;2024-03-25T02:22:05;6.28;;;2.13;;
71095;SDS011;58753;49.440;11.126;2024-03-25T02:24:30;9.87;;;2.80;;
71095;SDS011;58753;49.440;11.126;2024-03-25T02:26:58;5.15;;;1.60;;
71095;SDS011;58753;49.440;11.126;2024-03-25T02:29:32;3.13;;;1.57;;
71095;SDS011;58753;49.440;11.126;2024-03-25T02:32:00;5.10;;;2.00;;
71095;SDS011;58753;49.440;11.126;2024-03-25T02:34:25;7.10;;;1.60;;
71095;SDS011;58753;49.440;11.126;2024-03-25T02:36:51;7.43;;;2.40;;
71095;SDS011;58753;49.440;11.126;2024-03-25T02:39:18;6.07;;;2.20;;
71095;SDS011;58753;49.440;11.126;2024-03-25T02:41:44;6.07;;;1.90;;
71095;SDS011;58753;49.440;11.126;2024-03-25T02:44:11;5.80;;;2.58;;
71095;SDS011;58753;49.440;11.126;2024-03-25T02:46:39;6.38;;;2.30;;
71095;SDS011;58753;49.440;11.126;2024-03-25T02:49:05;5.53;;;1.60;;
71095;SDS011;58753;49.440;11.126;2024-03-25T02:51:30;2.50;;;1.20;;
71095;SDS011;58753;49.440;11.126;2024-03-25T02:53:56;3.97;;;2.33;;
71095;SDS011;58753;49.440;11.126;2024-03-25T02:56:21;6.60;;;2.43;;
71095;SDS011;58753;49.440;11.126;2024-03-25T02:58:47;5.00;;;2.03;;
71095;SDS011;58753;49.440;11.126;2024-03-25T03:01:12;7.35;;;2.80;;
71095;SDS011;58753;49.440;11.126;2024-03-25T03:03:37;3.70;;;1.30;;
71095;SDS011;58753;49.440;11.126;2024-03-25T03:06:03;8.60;;;2.27;;
71095;SDS011;58753;49.440;11.126;2024-03-25T03:08:29;13.40;;;2.53;;
71095;SDS011;58753;49.440;11.126;2024-03-25T03:10:54;4.00;;;1.70;;
71095;SDS011;58753;49.440;11.126;2024-03-25T03:13:19;6.43;;;2.73;;
71095;SDS011;58753;49.440;11.126;2024-03-25T03:15:45;6.80;;;1.87;;
71095;SDS011;58753;49.440;11.126;2024-03-25T03:18:10;4.53;;;1.92;;
71095;SDS011;58753;49.440;11.126;2024-03-25T03:20:36;9.60;;;2.57;;
71095;SDS011;58753;49.440;11.126;2024-03-25T03:23:01;6.90;;;2.40;;
71095;SDS011;58753;49.440;11.126;2024-03-25T03:25:27;7.63;;;2.63;;
71095;SDS011;58753;49.440;11.126;2024-03-25T03:27:54;5.25;;;2.53;;
71095;SDS011;58753;49.440;11.126;2024-03-25T03:30:21;4.70;;;1.97;;
71095;SDS011;58753;49.440;11.126;2024-03-25T03:32:46;4.28;;;1.73;;
71095;SDS011;58753;49.440;11.126;2024-03-25T03:35:11;6.43;;;2.80;;
71095;SDS011;58753;49.440;11.126;2024-03-25T03:37:37;4.30;;;2.40;;
71095;SDS011;58753;49.440;11.126;2024-03-25T03:40:02;7.77;;;3.63;;
71095;SDS011;58753;49.440;11.126;2024-03-25T03:42:31;5.15;;;2.60;;
71095;SDS011;58753;49.440;11.126;2024-03-25T03:44:56;4.75;;;2.53;;
71095;SDS011;58753;49.440;11.126;2024-03-25T03:47:22;6.57;;;2.23;;
71095;SDS011;58753;49.440;11.126;2024-03-25T03:49:47;8.60;;;3.77;;
71095;SDS011;58753;49.440;11.126;2024-03-25T03:52:12;6.87;;;2.83;;
71095;SDS011;58753;49.440;11.126;2024-03-25T03:54:38;8.57;;;3.42;;
71095;SDS011;58753;49.440;11.126;2024-03-25T03:57:04;6.83;;;3.00;;
71095;SDS011;58753;49.440;11.126;2024-03-25T03:59:30;8.45;;;2.75;;
71095;SDS011;58753;49.440;11.126;2024-03-25T04:01:56;6.03;;;3.13;;
71095;SDS011;58753;49.440;11.126;2024-03-25T04:04:22;10.05;;;2.97;;
71095;SDS011;58753;49.440;11.126;2024-03-25T04:06:48;5.57;;;2.93;;
71095;SDS011;58753;49.440;11.126;2024-03-25T04:09:13;6.50;;;3.07;;
71095;SDS011;58753;49.440;11.126;2024-03-25T04:11:39;7.30;;;3.17;;
71095;SDS011;58753;49.440;11.126;2024-03-25T04:14:04;6.63;;;2.85;;
71095;SDS011;58753;49.440;11.126;2024-03-25T04:16:30;9.07;;;3.03;;
71095;SDS011;58753;49.440;11.126;2024-03-25T04:18:56;5.95;;;2.90;;
71095;SDS011;58753;49.440;11.126;2024-03-25T04:21:22;6.60;;;3.00;;
71095;SDS011;58753;49.440;11.126;2024-03-25T04:23:48;10.73;;;3.53;;
71095;SDS011;58753;49.440;11.126;2024-03-25T04:26:14;13.73;;;3.80;;
71095;SDS011;58753;49.440;11.126;2024-03-25T04:28:43;6.18;;;2.90;;
71095;SDS011;58753;49.440;11.126;2024-03-25T04:31:08;2.93;;;1.73;;
71095;SDS011;58753;49.440;11.126;2024-03-25T04:33:34;9.77;;;2.87;;
71095;SDS011;58753;49.440;11.126;2024-03-25T04:36:00;9.60;;;2.92;;
71095;SDS011;58753;49.440;11.126;2024-03-25T04:38:25;10.05;;;3.30;;
71095;SDS011;58753;49.440;11.126;2024-03-25T04:40:51;7.43;;;3.20;;
71095;SDS011;58753;49.440;11.126;2024-03-25T04:43:16;6.77;;;2.90;;
71095;SDS011;58753;49.440;11.126;2024-03-25T04:45:42;5.68;;;3.22;;
71095;SDS011;58753;49.440;11.126;2024-03-25T04:48:07;7.73;;;3.37;;
71095;SDS011;58753;49.440;11.126;2024-03-25T04:50:33;9.23;;;3.03;;
71095;SDS011;58753;49.440;11.126;2024-03-25T04:52:59;8.90;;;3.25;;
71095;SDS011;58753;49.440;11.126;2024-03-25T04:55:25;4.67;;;2.33;;
71095;SDS011;58753;49.440;11.126;2024-03-25T04:57:50;5.82;;;3.10;;
71095;SDS011;58753;49.440;11.126;2024-03-25T05:00:16;8.03;;;2.70;;
71095;SDS011;58753;49.440;11.126;2024-03-25T05:02:42;10.38;;;3.92;;
71095;SDS011;58753;49.440;11.126;2024-03-25T05:05:07;6.17;;;3.43;;
71095;SDS011;58753;49.440;11.126;2024-03-25T05:07:33;5.63;;;2.80;;
71095;SDS011;58753;49.440;11.126;2024-03-25T05:09:59;8.33;;;2.80;;
71095;SDS011;58753;49.440;11.126;2024-03-25T05:12:25;10.30;;;4.80;;
71095;SDS011;58753;49.440;11.126;2024-03-25T05:14:54;6.38;;;3.47;;
71095;SDS011;58753;49.440;11.126;2024-03-25T05:17:20;8.17;;;3.07;;
71095;SDS011;58753;49.440;11.126;2024-03-25T05:19:46;9.40;;;3.50;;
71095;SDS011;58753;49.440;11.126;2024-03-25T05:22:11;12.40;;;3.33;;
71095;SDS011;58753;49.440;11.126;2024-03-25T05:24:36;8.37;;;2.80;;
71095;SDS011;58753;49.440;11.126;2024-03-25T05:27:02;10.03;;;3.87;;
71095;SDS011;58753;49.440;11.126;2024-03-25T05:29:27;6.10;;;2.30;;
71095;SDS011;58753;49.440;11.126;2024-03-25T05:31:57;8.57;;;3.55;;
71095;SDS011;58753;49.440;11.126;2024-03-25T05:34:24;9.90;;;3.55;;
71095;SDS011;58753;49.440;11.126;2024-03-25T05:36:50;8.33;;;3.70;;
71095;SDS011;58753;49.440;11.126;2024-03-25T05:39:16;9.80;;;3.42;;
71095;SDS011;58753;49.440;11.126;2024-03-25T05:41:41;8.90;;;3.53;;
71095;SDS011;58753;49.440;11.126;2024-03-25T05:44:06;12.20;;;4.10;;
71095;SDS011;58753;49.440;11.126;2024-03-25T05:46:32;8.43;;;3.90;;
71095;SDS011;58753;49.440;11.126;2024-03-25T05:49:00;6.63;;;3.38;;
71095;SDS011;58753;49.440;11.126;2024-03-25T05:51:26;11.03;;;3.70;;
71095;SDS011;58753;49.440;11.126;2024-03-25T05:53:52;8.68;;;3.83;;
71095;SDS011;58753;49.440;11.126;2024-03-25T05:56:18;9.07;;;3.30;;
71095;SDS011;58753;49.440;11.126;2024-03-25T05:58:43;8.65;;;3.85;;
71095;SDS011;58753;49.440;11.126;2024-03-25T06:01:09;7.83;;;3.60;;
71095;SDS011;58753;49.440;11.126;2024-03-25T06:03:34;13.07;;;3.83;;
71095;SDS011;58753;49.440;11.126;2024-03-25T06:05:59;9.83;;;4.30;;
71095;SDS011;58753;49.440;11.126;2024-03-25T06:08:26;11.48;;;3.72;;
71095;SDS011;58753;49.440;11.126;2024-03-25T06:10:52;5.80;;;2.83;;
71095;SDS011;58753;49.440;11.126;2024-03-25T06:13:18;7.18;;;3.10;;
71095;SDS011;58753;49.440;11.126;2024-03-25T06:15:43;8.30;;;3.35;;
71095;SDS011;58753;49.440;11.126;2024-03-25T06:18:09;12.33;;;3.73;;
71095;SDS011;58753;49.440;11.126;2024-03-25T06:20:34;7.97;;;3.65;;
71095;SDS011;58753;49.440;11.126;2024-03-25T06:23:00;8.90;;;3.77;;
71095;SDS011;58753;49.440;11.126;2024-03-25T06:25:26;6.95;;;3.67;;
71095;SDS011;58753;49.440;11.126;2024-03-25T06:27:52;8.87;;;4.13;;
71095;SDS011;58753;49.440;11.126;2024-03-25T06:30:17;8.63;;;3.70;;
71095;SDS011;58753;49.440;11.126;2024-03-25T06:33:01;6.03;;;3.00;;
71095;SDS011;58753;49.440;11.126;2024-03-25T06:35:45;6.53;;;2.60;;
71095;SDS011;58753;49.440;11.126;2024-03-25T06:38:10;7.37;;;3.50;;
71095;SDS011;58753;49.440;11.126;2024-03-25T06:40:36;11.93;;;4.00;;
71095;SDS011;58753;49.440;11.126;2024-03-25T06:43:02;7.18;;;2.78;;
71095;SDS011;58753;49.440;11.126;2024-03-25T06:45:28;12.03;;;3.63;;
71095;SDS011;58753;49.440;11.126;2024-03-25T06:47:54;7.57;;;2.90;;
71095;SDS011;58753;49.440;11.126;2024-03-25T06:50:20;10.20;;;3.23;;
71095;SDS011;58753;49.440;11.126;2024-03-25T06:52:45;6.25;;;3.03;;
71095;SDS011;58753;49.440;11.126;2024-03-25T06:55:11;8.43;;;3.50;;
71095;SDS011;58753;49.440;11.126;2024-03-25T06:57:36;5.87;;;2.77;;
71095;SDS011;58753;49.440;11.126;2024-03-25T07:00:01;6.23;;;1.83;;
71095;SDS011;58753;49.440;11.126;2024-03-25T07:02:31;6.40;;;3.20;;
71095;SDS011;58753;49.440;11.126;2024-03-25T07:04:56;8.95;;;3.40;;
71095;SDS011;58753;49.440;11.126;2024-03-25T07:07:22;5.87;;;2.83;;
71095;SDS011;58753;49.440;11.126;2024-03-25T07:09:47;6.40;;;3.07;;
71095;SDS011;58753;49.440;11.126;2024-03-25T07:12:13;4.87;;;2.73;;
71095;SDS011;58753;49.440;11.126;2024-03-25T07:14:38;7.80;;;3.33;;
71095;SDS011;58753;49.440;11.126;2024-03-25T07:17:03;5.85;;;2.33;;
71095;SDS011;58753;49.440;11.126;2024-03-25T07:19:29;6.33;;;2.20;;
71095;SDS011;58753;49.440;11.126;2024-03-25T07:21:54;4.73;;;1.77;;
71095;SDS011;58753;49.440;11.126;2024-03-25T07:24:19;8.20;;;2.47;;
71095;SDS011;58753;49.440;11.126;2024-03-25T07:26:45;7.40;;;2.80;;
71095;SDS011;58753;49.440;11.126;2024-03-25T07:29:11;12.40;;;2.30;;
71095;SDS011;58753;49.440;11.126;2024-03-25T07:31:36;5.87;;;2.20;;
71095;SDS011;58753;49.440;11.126;2024-03-25T07:34:02;6.05;;;2.47;;
71095;SDS011;58753;49.440;11.126;2024-03-25T07:36:27;5.97;;;1.70;;
71095;SDS011;58753;49.440;11.126;2024-03-25T07:38:58;4.40;;;1.63;;
71095;SDS011;58753;49.440;11.126;2024-03-25T07:41:23;4.27;;;1.40;;
71095;SDS011;58753;49.440;11.126;2024-03-25T07:43:48;7.03;;;1.23;;
71095;SDS011;58753;49.440;11.126;2024-03-25T07:46:14;4.03;;;1.53;;
71095;SDS011;58753;49.440;11.126;2024-03-25T07:48:39;3.63;;;1.67;;
71095;SDS011;58753;49.440;11.126;2024-03-25T07:51:05;5.32;;;1.40;;
71095;SDS011;58753;49.440;11.126;2024-03-25T07:53:30;6.80;;;1.80;;
71095;SDS011;58753;49.440;11.126;2024-03-25T07:55:55;4.33;;;1.33;;
71095;SDS011;58753;49.440;11.126;2024-03-25T07:58:21;3.40;;;0.70;;
71095;SDS011;58753;49.440;11.126;2024-03-25T08:00:46;4.35;;;1.60;;
71095;SDS011;58753;49.440;11.126;2024-03-25T08:03:11;4.60;;;0.73;;
71095;SDS011;58753;49.440;11.126;2024-03-25T08:05:37;2.17;;;1.10;;
71095;SDS011;58753;49.440;11.126;2024-03-25T08:08:02;2.63;;;0.57;;
71095;SDS011;58753;49.440;11.126;2024-03-25T08:10:28;3.08;;;0.63;;
71095;SDS011;58753;49.440;11.126;2024-03-25T08:12:54;4.07;;;0.82;;
71095;SDS011;58753;49.440;11.126;2024-03-25T08:15:19;3.47;;;1.03;;
71095;SDS011;58753;49.440;11.126;2024-03-25T08:17:45;2.97;;;0.87;;
71095;SDS011;58753;49.440;11.126;2024-03-25T08:20:10;9.57;;;1.87;;
71095;SDS011;58753;49.440;11.126;2024-03-25T08:22:36;7.85;;;1.58;;
71095;SDS011;58753;49.440;11.126;2024-03-25T08:25:01;2.27;;;0.73;;
71095;SDS011;58753;49.440;11.126;2024-03-25T08:27:27;4.25;;;0.80;;
71095;SDS011;58753;49.440;11.126;2024-03-25T08:29:52;3.90;;;0.80;;
71095;SDS011;58753;49.440;11.126;2024-03-25T08:32:19;4.97;;;1.08;;
71095;SDS011;58753;49.440;11.126;2024-03-25T08:34:44;2.40;;;1.13;;
71095;SDS011;58753;49.440;11.126;2024-03-25T08:37:10;4.35;;;1.05;;
71095;SDS011;58753;49.440;11.126;2024-03-25T08:39:36;5.10;;;1.40;;
71095;SDS011;58753;49.440;11.126;2024-03-25T08:42:02;7.35;;;0.90;;
71095;SDS011;58753;49.440;11.126;2024-03-25T08:44:27;2.38;;;0.88;;
71095;SDS011;58753;49.440;11.126;2024-03-25T08:46:53;4.90;;;0.80;;
71095;SDS011;58753;49.440;11.126;2024-03-25T08:49:18;2.73;;;0.80;;
71095;SDS011;58753;49.440;11.126;2024-03-25T08:51:44;7.67;;;1.27;;
71095;SDS011;58753;49.440;11.126;2024-03-25T08:54:09;4.55;;;0.90;;
71095;SDS011;58753;49.440;11.126;2024-03-25T08:56:34;2.50;;;0.80;;
71095;SDS011;58753;49.440;11.126;2024-03-25T08:59:00;2.80;;;0.80;;
71095;SDS011;58753;49.440;11.126;2024-03-25T09:01:26;2.08;;;0.75;;
71095;SDS011;58753;49.440;11.126;2024-03-25T09:03:52;1.63;;;0.60;;
71095;SDS011;58753;49.440;11.126;2024-03-25T09:06:17;5.83;;;1.10;;
71095;SDS011;58753;49.440;11.126;2024-03-25T09:08:43;3.63;;;0.70;;
71095;SDS011;58753;49.440;11.126;2024-03-25T09:11:28;3.33;;;0.85;;
71095;SDS011;58753;49.440;11.126;2024-03-25T09:13:54;3.13;;;0.93;;
71095;SDS011;58753;49.440;11.126;2024-03-25T09:16:19;3.50;;;1.03;;
71095;SDS011;58753;49.440;11.126;2024-03-25T09:18:44;4.30;;;0.80;;
71095;SDS011;58753;49.440;11.126;2024-03-25T09:21:10;2.13;;;0.90;;
71095;SDS011;58753;49.440;11.126;2024-03-25T09:23:36;5.07;;;0.70;;
71095;SDS011;58753;49.440;11.126;2024-03-25T09:26:01;4.50;;;0.95;;
71095;SDS011;58753;49.440;11.126;2024-03-25T09:28:27;2.70;;;0.90;;
71095;SDS011;58753;49.440;11.126;2024-03-25T09:30:52;2.37;;;0.90;;
71095;SDS011;58753;49.440;11.126;2024-03-25T09:33:18;3.73;;;0.90;;
71095;SDS011;58753;49.440;11.126;2024-03-25T09:35:43;4.73;;;1.17;;
71095;SDS011;58753;49.440;11.126;2024-03-25T09:38:09;2.77;;;1.03;;
71095;SDS011;58753;49.440;11.126;2024-03-25T09:40:39;2.25;;;1.20;;
71095;SDS011;58753;49.440;11.126;2024-03-25T09:43:06;2.80;;;1.30;;
71095;SDS011;58753;49.440;11.126;2024-03-25T09:45:38;5.60;;;1.70;;
71095;SDS011;58753;49.440;11.126;2024-03-25T09:48:05;5.22;;;1.63;;
71095;SDS011;58753;49.440;11.126;2024-03-25T09:50:32;4.90;;;1.15;;
71095;SDS011;58753;49.440;11.126;2024-03-25T09:52:57;4.47;;;1.17;;
71095;SDS011;58753;49.440;11.126;2024-03-25T09:55:23;4.93;;;1.33;;
71095;SDS011;58753;49.440;11.126;2024-03-25T09:57:49;4.93;;;1.10;;
71095;SDS011;58753;49.440;11.126;2024-03-25T10:00:14;4.80;;;1.30;;
71095;SDS011;58753;49.440;11.126;2024-03-25T10:02:40;2.20;;;0.90;;
71095;SDS011;58753;49.440;11.126;2024-03-25T10:05:06;3.30;;;0.98;;
71095;SDS011;58753;49.440;11.126;2024-03-25T10:07:32;1.97;;;0.60;;
71095;SDS011;58753;49.440;11.126;2024-03-25T10:09:59;3.75;;;1.15;;
71095;SDS011;58753;49.440;11.126;2024-03-25T10:12:25;6.90;;;1.60;;
71095;SDS011;58753;49.440;11.126;2024-03-25T10:14:50;1.67;;;0.83;;
71095;SDS011;58753;49.440;11.126;2024-03-25T10:17:16;4.90;;;1.23;;
71095;SDS011;58753;49.440;11.126;2024-03-25T10:19:41;3.35;;;1.50;;
71095;SDS011;58753;49.440;11.126;2024-03-25T10:22:07;6.77;;;1.30;;
71095;SDS011;58753;49.440;11.126;2024-03-25T10:24:43;3.50;;;1.20;;
71095;SDS011;58753;49.440;11.126;2024-03-25T10:27:31;2.90;;;1.30;;
71095;SDS011;58753;49.440;11.126;2024-03-25T10:29:55;2.30;;;1.00;;
71095;SDS011;58753;49.440;11.126;2024-03-25T10:32:21;3.03;;;0.93;;
71095;SDS011;58753;49.440;11.126;2024-03-25T10:34:53;4.05;;;1.08;;
71095;SDS011;58753;49.440;11.126;2024-03-25T10:37:19;4.33;;;1.57;;
71095;SDS011;58753;49.440;11.126;2024-03-25T10:39:47;3.50;;;1.20;;
71095;SDS011;58753;49.440;11.126;2024-03-25T10:42:14;3.47;;;1.00;;
71095;SDS011;58753;49.440;11.126;2024-03-25T10:44:47;3.63;;;1.13;;
71095;SDS011;58753;49.440;11.126;2024-03-25T10:47:14;1.83;;;0.82;;
71095;SDS011;58753;49.440;11.126;2024-03-25T10:50:17;3.97;;;0.80;;
71095;SDS011;58753;49.440;11.126;2024-03-25T10:52:38;5.88;;;0.80;;
71095;SDS011;58753;49.440;11.126;2024-03-25T10:55:04;3.47;;;1.00;;
71095;SDS011;58753;49.440;11.126;2024-03-25T10:57:32;3.00;;;0.90;;
71095;SDS011;58753;49.440;11.126;2024-03-25T10:59:58;7.18;;;1.50;;
71095;SDS011;58753;49.440;11.126;2024-03-25T11:02:26;4.10;;;1.77;;
71095;SDS011;58753;49.440;11.126;2024-03-25T11:04:53;8.13;;;1.30;;
71095;SDS011;58753;49.440;11.126;2024-03-25T11:07:27;2.45;;;1.20;;
71095;SDS011;58753;49.440;11.126;2024-03-25T11:10:04;2.60;;;1.30;;
71095;SDS011;58753;49.440;11.126;2024-03-25T11:12:31;3.38;;;1.10;;
71095;SDS011;58753;49.440;11.126;2024-03-25T11:14:58;3.38;;;2.00;;
71095;SDS011;58753;49.440;11.126;2024-03-25T11:17:26;2.87;;;1.63;;
71095;SDS011;58753;49.440;11.126;2024-03-25T11:19:52;3.17;;;1.20;;
71095;SDS011;58753;49.440;11.126;2024-03-25T11:22:23;6.30;;;1.10;;
71095;SDS011;58753;49.440;11.126;2024-03-25T11:24:50;3.08;;;1.00;;
71095;SDS011;58753;49.440;11.126;2024-03-25T11:27:26;3.10;;;1.23;;
71095;SDS011;58753;49.440;11.126;2024-03-25T11:29:52;3.97;;;1.15;;
71095;SDS011;58753;49.440;11.126;2024-03-25T11:32:17;4.07;;;1.40;;
71095;SDS011;58753;49.440;11.126;2024-03-25T11:34:51;2.10;;;1.40;;
71095;SDS011;58753;49.440;11.126;2024-03-25T11:37:17;3.53;;;1.02;;
71095;SDS011;58753;49.440;11.126;2024-03-25T11:39:43;2.93;;;0.97;;
71095;SDS011;58753;49.440;11.126;2024-03-25T11:42:08;4.63;;;1.35;;
71095;SDS011;58753;49.440;11.126;2024-03-25T11:44:37;3.63;;;1.40;;
71095;SDS011;58753;49.440;11.126;2024-03-25T11:47:05;1.92;;;1.00;;
71095;SDS011;58753;49.440;11.126;2024-03-25T11:49:36;3.40;;;0.90;;
71095;SDS011;58753;49.440;11.126;2024-03-25T11:52:03;3.53;;;1.60;;
71095;SDS011;58753;49.440;11.126;2024-03-25T11:54:32;3.80;;;1.83;;
71095;SDS011;58753;49.440;11.126;2024-03-25T11:56:57;3.63;;;1.73;;
71095;SDS011;58753;49.440;11.126;2024-03-25T11:59:24;2.50;;;1.10;;
71095;SDS011;58753;49.440;11.126;2024-03-25T12:01:50;2.90;;;1.60;;
71095;SDS011;58753;49.440;11.126;2024-03-25T12:04:16;4.97;;;1.58;;
71095;SDS011;58753;49.440;11.126;2024-03-25T12:06:43;4.88;;;1.80;;
71095;SDS011;58753;49.440;11.126;2024-03-25T12:09:10;3.07;;;1.60;;
71095;SDS011;58753;49.440;11.126;2024-03-25T12:11:54;2.63;;;1.67;;
71095;SDS011;58753;49.440;11.126;2024-03-25T12:14:21;2.65;;;1.40;;
71095;SDS011;58753;49.440;11.126;2024-03-25T12:16:48;2.13;;;1.30;;
71095;SDS011;58753;49.440;11.126;2024-03-25T12:19:15;3.43;;;1.50;;
71095;SDS011;58753;49.440;11.126;2024-03-25T12:21:43;4.13;;;2.10;;
71095;SDS011;58753;49.440;11.126;2024-03-25T12:24:08;3.28;;;0.90;;
71095;SDS011;58753;49.440;11.126;2024-03-25T12:26:34;4.03;;;1.27;;
71095;SDS011;58753;49.440;11.126;2024-03-25T12:29:00;5.22;;;1.48;;
71095;SDS011;58753;49.440;11.126;2024-03-25T12:31:27;2.97;;;1.30;;
71095;SDS011;58753;49.440;11.126;2024-03-25T12:33:52;2.70;;;1.40;;
71095;SDS011;58753;49.440;11.126;2024-03-25T12:36:18;4.50;;;2.23;;
71095;SDS011;58753;49.440;11.126;2024-03-25T12:38:53;1.42;;;1.00;;
71095;SDS011;58753;49.440;11.126;2024-03-25T12:41:21;2.17;;;1.10;;
71095;SDS011;58753;49.440;11.126;2024-03-25T12:43:48;4.28;;;1.52;;
71095;SDS011;58753;49.440;11.126;2024-03-25T12:46:15;4.77;;;1.40;;
71095;SDS011;58753;49.440;11.126;2024-03-25T12:48:40;3.80;;;1.10;;
71095;SDS011;58753;49.440;11.126;2024-03-25T12:51:11;2.73;;;1.20;;
71095;SDS011;58753;49.440;11.126;2024-03-25T12:53:37;2.50;;;1.20;;
71095;SDS011;58753;49.440;11.126;2024-03-25T12:56:03;3.27;;;1.33;;
71095;SDS011;58753;49.440;11.126;2024-03-25T12:58:28;2.27;;;1.13;;
71095;SDS011;58753;49.440;11.126;2024-03-25T13:00:53;2.80;;;1.52;;
71095;SDS011;58753;49.440;11.126;2024-03-25T13:03:20;2.83;;;1.40;;
71095;SDS011;58753;49.440;11.126;2024-03-25T13:05:46;4.27;;;1.47;;
71095;SDS011;58753;49.440;11.126;2024-03-25T13:08:11;4.17;;;1.80;;
71095;SDS011;58753;49.440;11.126;2024-03-25T13:10:37;3.80;;;1.40;;
71095;SDS011;58753;49.440;11.126;2024-03-25T13:13:03;2.08;;;1.10;;
71095;SDS011;58753;49.440;11.126;2024-03-25T13:15:30;2.63;;;1.03;;
71095;SDS011;58753;49.440;11.126;2024-03-25T13:17:56;4.60;;;1.30;;
71095;SDS011;58753;49.440;11.126;2024-03-25T13:20:21;4.23;;;1.20;;
71095;SDS011;58753;49.440;11.126;2024-03-25T13:22:48;2.97;;;0.98;;
71095;SDS011;58753;49.440;11.126;2024-03-25T13:25:14;2.78;;;1.20;;
71095;SDS011;58753;49.440;11.126;2024-03-25T13:27:40;2.37;;;1.30;;
71095;SDS011;58753;49.440;11.126;2024-03-25T13:30:06;2.05;;;1.38;;
71095;SDS011;58753;49.440;11.126;2024-03-25T13:32:32;6.20;;;1.80;;
71095;SDS011;58753;49.440;11.126;2024-03-25T13:34:57;3.45;;;1.67;;
71095;SDS011;58753;49.440;11.126;2024-03-25T13:37:23;2.60;;;1.83;;
71095;SDS011;58753;49.440;11.126;2024-03-25T13:39:48;1.80;;;1.15;;
71095;SDS011;58753;49.440;11.126;2024-03-25T13:42:15;3.03;;;1.10;;
71095;SDS011;58753;49.440;11.126;2024-03-25T13:44:40;2.17;;;1.10;;
71095;SDS011;58753;49.440;11.126;2024-03-25T13:47:06;1.97;;;1.43;;
71095;SDS011;58753;49.440;11.126;2024-03-25T13:49:33;3.30;;;1.87;;
71095;SDS011;58753;49.440;11.126;2024-03-25T13:51:59;4.03;;;1.50;;
71095;SDS011;58753;49.440;11.126;2024-03-25T13:54:26;3.57;;;1.47;;
71095;SDS011;58753;49.440;11.126;2024-03-25T13:56:51;2.57;;;1.40;;
71095;SDS011;58753;49.440;11.126;2024-03-25T13:59:17;3.60;;;1.35;;
71095;SDS011;58753;49.440;11.126;2024-03-25T14:01:43;3.53;;;1.33;;
71095;SDS011;58753;49.440;11.126;2024-03-25T14:04:08;5.05;;;1.40;;
71095;SDS011;58753;49.440;11.126;2024-03-25T14:06:33;6.23;;;1.50;;
71095;SDS011;58753;49.440;11.126;2024-03-25T14:09:01;2.00;;;1.23;;
71095;SDS011;58753;49.440;11.126;2024-03-25T14:11:29;2.13;;;1.17;;
71095;SDS011;58753;49.440;11.126;2024-03-25T14:13:55;2.80;;;1.83;;
71095;SDS011;58753;49.440;11.126;2024-03-25T14:16:21;3.10;;;1.08;;
71095;SDS011;58753;49.440;11.126;2024-03-25T14:18:46;2.07;;;1.27;;
71095;SDS011;58753;49.440;11.126;2024-03-25T14:21:11;3.57;;;1.17;;
71095;SDS011;58753;49.440;11.126;2024-03-25T14:23:37;2.05;;;1.00;;
71095;SDS011;58753;49.440;11.126;2024-03-25T14:26:02;2.47;;;1.10;;
71095;SDS011;58753;49.440;11.126;2024-03-25T14:28:28;2.27;;;1.07;;